Time;durP1;ratioP1;P1;durP2;ratioP2;P2;SDS_P1;SDS_P2;PMS_P1;PMS_P2;Temp;Humidity;BMP_temperature;BMP_pressure;BME280_temperature;BME280_humidity;BME280_pressure;Samples;Min_cycle;Max_cycle;Signal;HPM_P1;HPM_P2
2021/08/16 00:00:11;;;;;;;6.72;3.97;;;;;;;24.60;54.03;100777.03;5059744;28;20040;-72
2021/08/16 00:02:36;;;;;;;7.78;4.82;;;;;;;24.58;54.07;100773.72;5057990;28;20035;-72
2021/08/16 00:05:03;;;;;;;7.60;4.88;;;;;;;24.58;54.12;100771.06;5059693;28;20115;-72
2021/08/16 00:07:29;;;;;;;6.63;4.72;;;;;;;24.19;53.95;100702.84;5059123;28;20377;-72
2021/08/16 00:09:54;;;;;;;6.50;4.47;;;;;;;24.40;54.07;100745.97;5060749;28;20047;-70
2021/08/16 00:12:20;;;;;;;8.55;5.38;;;;;;;24.38;54.24;100748.03;5060307;28;20482;-72
2021/08/16 00:14:45;;;;;;;6.85;4.50;;;;;;;24.52;53.97;100766.59;5061060;28;20036;-71
2021/08/16 00:17:12;;;;;;;8.98;4.32;;;;;;;24.53;54.05;100761.06;5060715;28;20094;-72
2021/08/16 00:19:38;;;;;;;6.10;4.57;;;;;;;24.52;54.12;100748.78;5065535;28;20024;-72
2021/08/16 00:22:04;;;;;;;7.65;4.50;;;;;;;24.46;54.15;100733.69;5059940;28;20402;-72
2021/08/16 00:24:30;;;;;;;6.75;4.47;;;;;;;24.48;54.28;100741.44;5058925;28;20056;-72
2021/08/16 00:26:56;;;;;;;8.82;4.65;;;;;;;24.38;54.27;100732.06;5056036;28;20041;-72
2021/08/16 00:29:23;;;;;;;7.82;4.70;;;;;;;24.44;54.29;100741.06;5058364;28;20054;-72
2021/08/16 00:31:48;;;;;;;6.60;4.60;;;;;;;24.38;54.35;100739.22;5061599;28;20119;-70
2021/08/16 00:34:14;;;;;;;5.95;4.35;;;;;;;24.44;54.37;100735.72;5057767;28;20056;-72
2021/08/16 00:36:39;;;;;;;6.82;4.68;;;;;;;24.08;54.30;100685.72;5057994;28;20067;-72
2021/08/16 00:39:05;;;;;;;7.93;4.70;;;;;;;24.32;54.25;100721.44;5058240;28;20028;-72
2021/08/16 00:41:31;;;;;;;6.97;4.47;;;;;;;24.36;54.21;100717.34;5059866;28;20156;-73
2021/08/16 00:43:56;;;;;;;8.27;4.53;;;;;;;24.29;54.34;100705.91;5057855;28;20045;-72
2021/08/16 00:46:22;;;;;;;6.72;4.75;;;;;;;24.34;54.45;100722.88;5060077;28;20039;-72
2021/08/16 00:48:48;;;;;;;6.85;4.60;;;;;;;24.24;54.43;100705.72;5055137;28;20137;-72
2021/08/16 00:51:14;;;;;;;6.13;4.20;;;;;;;24.40;54.41;100731.84;5043389;28;20036;-72
2021/08/16 00:53:41;;;;;;;8.07;5.05;;;;;;;24.37;54.51;100722.44;5061373;28;20034;-72
2021/08/16 00:56:10;;;;;;;6.25;4.63;;;;;;;24.37;54.55;100732.28;5070164;28;20044;-73
2021/08/16 00:58:37;;;;;;;6.63;4.07;;;;;;;24.30;54.34;100723.50;5058533;28;20063;-73
2021/08/16 01:01:03;;;;;;;6.05;4.65;;;;;;;24.36;54.38;100727.97;5060620;28;20032;-72
2021/08/16 01:03:28;;;;;;;6.40;4.57;;;;;;;24.34;54.50;100727.38;5057271;28;20064;-73
2021/08/16 01:05:55;;;;;;;7.60;4.30;;;;;;;24.32;54.49;100724.13;5057818;28;20895;-72
2021/08/16 01:08:21;;;;;;;6.85;4.65;;;;;;;24.14;54.50;100695.50;5057918;28;20033;-72
2021/08/16 01:10:47;;;;;;;6.55;4.38;;;;;;;24.29;54.66;100711.25;5057492;28;20033;-71
2021/08/16 01:13:14;;;;;;;6.28;4.75;;;;;;;24.16;54.39;100676.66;5057688;28;20056;-71
2021/08/16 01:15:39;;;;;;;7.82;4.35;;;;;;;24.31;54.56;100710.00;5064245;28;20036;-72
2021/08/16 01:18:05;;;;;;;7.13;4.45;;;;;;;24.29;54.50;100706.72;5058130;28;20508;-72
2021/08/16 01:20:31;;;;;;;6.18;4.15;;;;;;;24.30;54.59;100712.88;5057521;28;20616;-72
2021/08/16 01:22:57;;;;;;;7.45;4.20;;;;;;;24.29;54.53;100709.41;5060974;28;20040;-71
2021/08/16 01:25:23;;;;;;;5.60;4.10;;;;;;;24.20;54.63;100697.31;5060082;28;20044;-71
2021/08/16 01:27:48;;;;;;;6.28;4.07;;;;;;;24.21;54.61;100692.81;5063541;28;20052;-71
2021/08/16 01:30:16;;;;;;;6.78;4.47;;;;;;;24.27;54.54;100705.28;5060993;28;20509;-72
2021/08/16 01:32:42;;;;;;;6.43;4.18;;;;;;;24.27;54.59;100705.28;5060957;28;20124;-71
2021/08/16 01:35:09;;;;;;;6.90;4.68;;;;;;;24.25;54.60;100705.50;5061571;28;20107;-71
2021/08/16 01:37:35;;;;;;;7.95;4.53;;;;;;;24.22;54.71;100700.56;5061319;28;20387;-71
2021/08/16 01:40:00;;;;;;;7.90;4.80;;;;;;;24.26;54.62;100707.13;5064496;28;20036;-72
2021/08/16 01:42:26;;;;;;;6.53;4.13;;;;;;;24.23;54.66;100701.38;5061867;28;20041;-71
2021/08/16 01:44:51;;;;;;;7.40;3.90;;;;;;;24.24;54.68;100703.06;5067961;28;20044;-71
2021/08/16 01:47:17;;;;;;;6.00;4.28;;;;;;;24.26;54.74;100706.31;5066260;28;20037;-71
2021/08/16 01:49:42;;;;;;;6.22;4.53;;;;;;;24.08;54.65;100681.22;5060724;28;20033;-71
2021/08/16 01:52:08;;;;;;;7.32;4.78;;;;;;;24.23;54.62;100702.22;5065618;28;20486;-71
2021/08/16 01:54:34;;;;;;;7.07;4.68;;;;;;;24.22;54.77;100707.75;5061705;28;20037;-71
2021/08/16 01:56:59;;;;;;;7.72;4.60;;;;;;;23.87;54.77;100654.88;5063147;28;20474;-71
2021/08/16 01:59:25;;;;;;;6.50;4.40;;;;;;;24.20;54.72;100705.28;5059977;28;20056;-70
2021/08/16 02:01:50;;;;;;;7.32;4.35;;;;;;;24.21;54.58;100706.09;5059595;28;20036;-71
2021/08/16 02:04:16;;;;;;;6.57;4.10;;;;;;;24.11;54.72;100701.25;5060798;28;20036;-71
2021/08/16 02:06:42;;;;;;;6.35;4.28;;;;;;;24.04;54.84;100687.97;5058363;28;20061;-70
2021/08/16 02:09:07;;;;;;;8.57;4.50;;;;;;;24.20;54.68;100704.47;5060773;28;20044;-71
2021/08/16 02:11:33;;;;;;;5.32;4.05;;;;;;;24.10;54.64;100688.97;5060197;28;20044;-71
2021/08/16 02:13:58;;;;;;;9.00;4.90;;;;;;;24.22;54.45;100705.06;5060984;28;20052;-71
2021/08/16 02:16:24;;;;;;;7.95;4.60;;;;;;;24.09;54.59;100682.84;5060613;28;20053;-71
2021/08/16 02:18:49;;;;;;;6.10;4.25;;;;;;;24.20;54.71;100712.47;5041782;28;20090;-71
2021/08/16 02:21:15;;;;;;;7.40;4.30;;;;;;;24.18;54.56;100709.19;5062728;28;20505;-71
2021/08/16 02:23:41;;;;;;;5.93;4.22;;;;;;;24.17;54.59;100707.56;5060821;28;20194;-71
2021/08/16 02:26:06;;;;;;;7.55;4.40;;;;;;;23.82;54.63;100646.72;5060338;28;20072;-71
2021/08/16 02:28:33;;;;;;;6.50;4.20;;;;;;;24.06;54.75;100693.09;5057358;28;20056;-71
2021/08/16 02:30:59;;;;;;;7.35;4.15;;;;;;;24.16;54.68;100711.25;5065395;28;20124;-71
2021/08/16 02:33:24;;;;;;;6.43;4.10;;;;;;;24.15;54.63;100707.78;5058064;28;20040;-71
2021/08/16 02:35:50;;;;;;;8.55;4.47;;;;;;;24.06;54.94;100693.09;5060744;28;20029;-71
2021/08/16 02:38:15;;;;;;;7.32;4.60;;;;;;;24.11;54.94;100706.56;5057390;28;20036;-71
2021/08/16 02:40:41;;;;;;;7.00;4.63;;;;;;;24.02;54.85;100690.03;5059592;28;20028;-71
2021/08/16 02:43:06;;;;;;;7.32;4.43;;;;;;;24.14;54.76;100706.16;5062531;28;20037;-72
2021/08/16 02:45:32;;;;;;;6.18;4.30;;;;;;;24.16;54.73;100704.09;5061265;28;20044;-72
2021/08/16 02:47:58;;;;;;;9.15;5.40;;;;;;;24.15;54.91;100699.78;5059784;28;20049;-71
2021/08/16 02:50:23;;;;;;;8.43;4.80;;;;;;;24.06;54.89;100682.47;5059501;28;20045;-72
2021/08/16 02:52:51;;;;;;;5.63;4.32;;;;;;;24.07;54.99;100687.56;5057958;28;20043;-71
2021/08/16 02:55:17;;;;;;;6.38;4.22;;;;;;;24.11;54.87;100695.94;5061745;28;20485;-71
2021/08/16 02:57:43;;;;;;;7.85;4.57;;;;;;;24.10;54.87;100697.78;5059835;28;20076;-71
2021/08/16 03:00:09;;;;;;;6.45;4.25;;;;;;;24.08;54.81;100694.50;5062485;28;20094;-71
2021/08/16 03:02:35;;;;;;;9.45;4.70;;;;;;;24.08;54.85;100693.69;5058235;28;20061;-71
2021/08/16 03:05:00;;;;;;;7.03;4.40;;;;;;;24.09;54.90;100692.69;5060015;28;20051;-72
2021/08/16 03:07:26;;;;;;;7.63;5.00;;;;;;;24.04;54.96;100693.28;5040754;28;20032;-71
2021/08/16 03:09:52;;;;;;;7.45;4.70;;;;;;;23.73;54.94;100635.53;5062503;28;20116;-71
2021/08/16 03:12:18;;;;;;;7.80;4.45;;;;;;;24.02;55.00;100683.88;5059634;28;20033;-71
2021/08/16 03:14:45;;;;;;;6.15;4.30;;;;;;;24.09;54.89;100692.69;5059672;28;20841;-71
2021/08/16 03:17:11;;;;;;;7.38;4.47;;;;;;;24.08;55.03;100694.50;5060370;28;20040;-71
2021/08/16 03:19:37;;;;;;;8.07;4.68;;;;;;;24.07;54.92;100694.72;5058640;28;20044;-71
2021/08/16 03:22:03;;;;;;;6.68;4.63;;;;;;;24.05;54.87;100683.47;5058542;28;20037;-71
2021/08/16 03:24:30;;;;;;;5.75;4.13;;;;;;;24.08;54.91;100685.72;5065961;28;20074;-71
2021/08/16 03:26:56;;;;;;;8.25;4.88;;;;;;;24.04;54.87;100687.16;5066787;28;20037;-71
2021/08/16 03:29:21;;;;;;;6.25;4.32;;;;;;;24.05;54.87;100691.44;5062270;28;20045;-71
2021/08/16 03:31:47;;;;;;;6.15;4.18;;;;;;;24.06;54.77;100696.56;5058255;28;20097;-71
2021/08/16 03:34:12;;;;;;;6.35;4.20;;;;;;;23.99;54.94;100681.66;5057826;28;20029;-71
2021/08/16 03:36:38;;;;;;;8.50;4.68;;;;;;;24.05;54.79;100686.94;5040130;28;20048;-71
2021/08/16 03:39:04;;;;;;;6.80;4.40;;;;;;;24.03;54.88;100691.66;5060152;28;20116;-71
2021/08/16 03:41:30;;;;;;;6.28;4.15;;;;;;;23.96;54.88;100668.78;5042994;28;20072;-71
2021/08/16 03:43:55;;;;;;;11.57;4.68;;;;;;;23.95;54.78;100675.94;5060640;28;20033;-71
2021/08/16 03:46:21;;;;;;;6.93;4.35;;;;;;;23.85;55.13;100658.78;5056589;28;20048;-71
2021/08/16 03:48:46;;;;;;;7.43;4.53;;;;;;;23.94;54.94;100673.50;5042836;28;20041;-71
2021/08/16 03:51:12;;;;;;;7.60;4.45;;;;;;;24.05;54.85;100678.13;5060375;28;20043;-71
2021/08/16 03:53:38;;;;;;;7.03;4.40;;;;;;;23.98;55.10;100664.88;5058469;28;20029;-71
2021/08/16 03:56:04;;;;;;;8.32;4.80;;;;;;;24.03;54.76;100686.34;5058345;28;20032;-71
2021/08/16 03:58:30;;;;;;;6.60;4.25;;;;;;;24.01;55.18;100676.94;5059538;28;20040;-71
2021/08/16 04:00:55;;;;;;;8.73;4.70;;;;;;;24.01;54.92;100679.59;5058841;28;20068;-71
2021/08/16 04:03:21;;;;;;;8.38;4.57;;;;;;;23.94;55.02;100669.00;5057293;28;20037;-71
2021/08/16 04:05:46;;;;;;;5.63;3.78;;;;;;;24.01;55.00;100680.41;5057460;28;20453;-72
2021/08/16 04:08:12;;;;;;;9.07;4.55;;;;;;;23.94;54.80;100673.50;5057028;28;20037;-71
2021/08/16 04:10:38;;;;;;;6.13;4.22;;;;;;;23.97;54.92;100676.53;5058833;28;20033;-71
2021/08/16 04:13:03;;;;;;;8.55;4.30;;;;;;;23.81;54.80;100656.56;5055828;28;20384;-72
2021/08/16 04:15:29;;;;;;;7.00;4.43;;;;;;;23.99;54.98;100677.16;5059176;28;20097;-71
2021/08/16 04:17:55;;;;;;;7.88;4.60;;;;;;;23.98;54.83;100669.38;5075281;28;20033;-72
2021/08/16 04:20:21;;;;;;;6.18;4.10;;;;;;;23.98;54.71;100670.19;5058902;28;20437;-71
2021/08/16 04:22:47;;;;;;;8.27;4.90;;;;;;;23.58;55.09;100602.25;5057075;28;20040;-71
2021/08/16 04:25:15;;;;;;;7.05;4.53;;;;;;;23.98;54.89;100664.88;5057075;28;20482;-71
2021/08/16 04:27:41;;;;;;;6.93;4.60;;;;;;;23.97;54.98;100655.25;5059141;28;20098;-71
2021/08/16 04:30:08;;;;;;;6.95;4.38;;;;;;;23.98;54.96;100653.44;5058803;28;20052;-72
2021/08/16 04:32:34;;;;;;;7.68;4.22;;;;;;;23.98;55.06;100659.56;5057935;28;20043;-71
2021/08/16 04:34:59;;;;;;;7.97;4.38;;;;;;;24.00;54.87;100659.34;5057695;28;20119;-72
2021/08/16 04:37:25;;;;;;;6.55;4.25;;;;;;;23.97;55.02;100655.25;5059995;28;20799;-73
2021/08/16 04:39:51;;;;;;;7.55;4.55;;;;;;;23.96;54.98;100655.47;5041535;28;20519;-71
2021/08/16 04:42:17;;;;;;;6.75;4.43;;;;;;;23.96;55.20;100653.63;5056306;28;20021;-71
2021/08/16 04:44:43;;;;;;;8.75;4.95;;;;;;;23.95;55.03;100661.81;5043301;28;20031;-71
2021/08/16 04:47:09;;;;;;;8.30;4.47;;;;;;;23.79;55.01;100623.22;5058018;28;20028;-71
2021/08/16 04:49:34;;;;;;;8.25;4.10;;;;;;;23.95;54.95;100662.66;5059540;28;20561;-71
2021/08/16 04:52:00;;;;;;;7.63;4.75;;;;;;;23.94;55.13;100662.84;5041539;28;20382;-72
2021/08/16 04:54:25;;;;;;;7.82;4.72;;;;;;;23.95;55.09;100667.16;5057655;28;20477;-71
2021/08/16 04:56:51;;;;;;;7.45;4.40;;;;;;;23.96;55.06;100661.63;5056539;28;20051;-71
2021/08/16 04:59:16;;;;;;;7.03;4.15;;;;;;;23.91;55.04;100657.97;5058761;28;20071;-71
2021/08/16 05:01:44;;;;;;;7.25;4.68;;;;;;;23.95;55.10;100657.31;5058353;28;20040;-71
2021/08/16 05:04:09;;;;;;;6.82;4.28;;;;;;;23.92;55.09;100652.44;5057090;28;20041;-71
2021/08/16 05:06:35;;;;;;;5.95;3.80;;;;;;;23.95;54.87;100649.34;5055306;28;20044;-71
2021/08/16 05:09:02;;;;;;;8.68;4.20;;;;;;;23.90;55.10;100643.84;5060143;28;20040;-71
2021/08/16 05:11:29;;;;;;;7.90;4.50;;;;;;;23.93;55.15;100637.28;5056367;28;20016;-71
2021/08/16 05:13:55;;;;;;;8.52;4.30;;;;;;;23.93;55.11;100634.63;5055377;28;20095;-71
2021/08/16 05:16:25;;;;;;;5.93;4.07;;;;;;;23.91;55.03;100632.19;5054582;28;20041;-71
2021/08/16 05:18:52;;;;;;;6.95;4.20;;;;;;;23.92;55.03;100625.03;5057818;28;20410;-71
2021/08/16 05:21:18;;;;;;;9.10;4.65;;;;;;;23.92;55.00;100617.88;5057853;28;20127;-71
2021/08/16 05:23:44;;;;;;;6.13;3.90;;;;;;;23.91;55.00;100624.22;5056209;28;20079;-71
2021/08/16 05:26:09;;;;;;;5.90;4.00;;;;;;;23.92;54.94;100625.03;5057035;28;20256;-71
2021/08/16 05:28:35;;;;;;;6.45;4.30;;;;;;;23.85;54.87;100622.38;5056311;28;20037;-71
2021/08/16 05:31:00;;;;;;;5.95;4.10;;;;;;;23.92;54.89;100633.00;5058720;28;20036;-71
2021/08/16 05:33:26;;;;;;;6.65;3.80;;;;;;;23.93;54.93;100632.78;5057372;28;20512;-71
2021/08/16 05:35:52;;;;;;;5.10;3.88;;;;;;;23.58;55.12;100589.78;5054505;28;20036;-71
2021/08/16 05:38:17;;;;;;;6.32;4.05;;;;;;;23.85;55.08;100627.69;5056459;28;20482;-71
2021/08/16 05:40:43;;;;;;;6.00;4.07;;;;;;;23.90;55.11;100632.41;5057358;28;20051;-71
2021/08/16 05:43:08;;;;;;;7.30;4.03;;;;;;;23.74;55.16;100618.56;5056234;28;20047;-71
2021/08/16 05:45:34;;;;;;;5.53;3.85;;;;;;;23.88;55.15;100631.75;5039792;28;20145;-71
2021/08/16 05:47:59;;;;;;;6.72;4.20;;;;;;;23.87;55.08;100638.94;5057747;28;20499;-71
2021/08/16 05:50:25;;;;;;;5.80;3.72;;;;;;;23.83;55.25;100619.13;5057162;28;20064;-71
2021/08/16 05:52:52;;;;;;;6.68;3.80;;;;;;;23.90;54.91;100632.41;5059801;28;20453;-73
2021/08/16 05:55:18;;;;;;;4.95;3.72;;;;;;;23.84;54.92;100611.94;5057142;28;20028;-72
2021/08/16 05:57:43;;;;;;;7.28;4.22;;;;;;;23.92;55.09;100631.16;5056674;28;20098;-72
2021/08/16 06:00:10;;;;;;;5.95;3.80;;;;;;;23.73;55.20;100594.84;5057905;28;20056;-72
2021/08/16 06:02:35;;;;;;;7.20;3.60;;;;;;;23.89;54.98;100625.44;5054265;28;20041;-72
2021/08/16 06:05:02;;;;;;;7.55;3.75;;;;;;;24.01;54.95;100629.88;5057847;28;20040;-73
2021/08/16 06:07:27;;;;;;;6.13;3.78;;;;;;;23.98;54.91;100624.97;5062095;28;20064;-75
2021/08/16 06:09:53;;;;;;;7.18;3.90;;;;;;;24.00;54.90;100632.75;5074321;28;20482;-73
2021/08/16 06:12:19;;;;;;;7.70;4.00;;;;;;;24.04;54.89;100629.44;5061021;28;20051;-73
2021/08/16 06:14:45;;;;;;;6.07;3.80;;;;;;;23.95;54.78;100612.13;5065595;28;20040;-73
2021/08/16 06:17:11;;;;;;;5.82;3.65;;;;;;;24.14;54.29;100614.88;5062781;28;20029;-73
2021/08/16 06:19:36;;;;;;;5.57;3.95;;;;;;;24.26;54.07;100621.16;5064932;28;20040;-73
2021/08/16 06:22:02;;;;;;;5.53;3.90;;;;;;;24.43;53.66;100630.31;5065098;28;20048;-73
2021/08/16 06:24:28;;;;;;;6.63;3.75;;;;;;;24.35;53.40;100618.06;5046887;28;20394;-73
2021/08/16 06:26:54;;;;;;;5.97;3.70;;;;;;;24.56;53.25;100632.84;5046769;28;20040;-73
2021/08/16 06:29:19;;;;;;;5.55;3.65;;;;;;;24.55;53.21;100630.41;5064911;28;20456;-73
2021/08/16 06:31:45;;;;;;;5.38;3.63;;;;;;;24.56;53.29;100637.38;5063094;28;20037;-73
2021/08/16 06:34:12;;;;;;;4.68;4.03;;;;;;;24.41;53.38;100638.47;5065178;28;20029;-73
2021/08/16 06:36:39;;;;;;;5.95;3.63;;;;;;;24.46;53.43;100643.19;5062132;28;20059;-73
2021/08/16 06:39:18;;;;;;;6.30;4.00;;;;;;;24.41;53.46;100632.34;5068180;28;20067;-71
2021/08/16 06:41:54;;;;;;;6.22;4.03;;;;;;;24.43;53.38;100634.81;5063055;28;20082;-72
2021/08/16 06:44:23;;;;;;;7.75;3.95;;;;;;;24.49;53.40;100631.28;5060999;28;20037;-72
2021/08/16 06:46:49;;;;;;;5.50;4.20;;;;;;;24.32;53.82;100629.13;5067456;28;20131;-73
2021/08/16 06:49:15;;;;;;;5.93;3.97;;;;;;;24.37;53.84;100641.78;5060985;28;20492;-72
2021/08/16 06:51:44;;;;;;;5.63;3.60;;;;;;;24.40;53.61;100636.84;5065896;28;20115;-72
2021/08/16 06:54:10;;;;;;;4.60;3.20;;;;;;;24.51;53.30;100646.00;5062885;28;20033;-72
2021/08/16 06:56:36;;;;;;;5.40;3.55;;;;;;;24.60;53.04;100649.22;5070073;28;20043;-72
2021/08/16 06:59:01;;;;;;;7.13;3.95;;;;;;;24.70;52.74;100657.53;5064912;28;20076;-73
2021/08/16 07:01:28;;;;;;;7.90;4.20;;;;;;;24.66;52.58;100637.72;5057665;28;20374;-73
2021/08/16 07:03:55;;;;;;;6.00;3.90;;;;;;;24.80;52.59;100649.91;5059922;28;20484;-73
2021/08/16 07:06:21;;;;;;;7.80;4.10;;;;;;;24.93;51.97;100641.78;5066970;28;20032;-72
2021/08/16 07:08:48;;;;;;;4.97;3.67;;;;;;;24.91;52.13;100638.53;5068958;28;20428;-73
2021/08/16 07:11:14;;;;;;;5.40;3.72;;;;;;;24.86;51.58;100619.72;5064629;28;20037;-73
2021/08/16 07:13:39;;;;;;;7.85;4.63;;;;;;;25.06;51.59;100640.88;5059452;28;20371;-72
2021/08/16 07:16:06;;;;;;;7.93;3.85;;;;;;;25.14;51.48;100656.63;5050209;28;20036;-72
2021/08/16 07:18:34;;;;;;;6.10;4.07;;;;;;;25.11;51.53;100657.03;5064012;28;20040;-72
2021/08/16 07:21:01;;;;;;;5.38;3.97;;;;;;;25.10;51.37;100651.91;5060221;28;20659;-72
2021/08/16 07:23:26;;;;;;;5.22;3.78;;;;;;;25.12;51.02;100657.84;5057756;28;20036;-77
2021/08/16 07:25:52;;;;;;;5.30;3.83;;;;;;;25.11;51.18;100656.22;5058261;28;20406;-73
2021/08/16 07:28:18;;;;;;;5.90;3.80;;;;;;;25.20;51.05;100657.59;5042239;28;20033;-74
2021/08/16 07:30:43;;;;;;;4.72;3.00;;;;;;;25.23;51.76;100655.28;5042490;28;20086;-78
2021/08/16 07:33:09;;;;;;;5.13;2.80;;;;;;;25.44;51.33;100654.03;5050918;28;20037;-76
2021/08/16 07:35:34;;;;;;;5.55;3.22;;;;;;;25.50;50.97;100663.03;5062373;28;20051;-75
2021/08/16 07:38:00;;;;;;;4.25;2.83;;;;;;;25.54;50.74;100656.22;5058725;28;20035;-75
2021/08/16 07:40:25;;;;;;;6.60;2.90;;;;;;;25.47;50.82;100661.59;5061172;28;20486;-76
2021/08/16 07:42:51;;;;;;;4.97;2.92;;;;;;;25.41;51.00;100648.34;5043298;28;20041;-75
2021/08/16 07:45:16;;;;;;;5.65;3.28;;;;;;;25.36;51.25;100664.19;5036637;28;20153;-75
2021/08/16 07:47:43;;;;;;;6.43;3.03;;;;;;;25.36;51.34;100667.69;5053807;28;20048;-75
2021/08/16 07:50:10;;;;;;;4.65;2.92;;;;;;;25.26;51.41;100659.34;5058640;28;20074;-76
2021/08/16 07:52:38;;;;;;;4.38;2.80;;;;;;;25.36;51.72;100661.53;5041595;28;20025;-76
2021/08/16 07:55:05;;;;;;;6.88;3.40;;;;;;;25.26;51.63;100662.03;5060148;28;20485;-75
2021/08/16 07:57:31;;;;;;;4.15;3.10;;;;;;;25.24;51.79;100666.75;5022948;28;20106;-76
2021/08/16 08:00:00;;;;;;;8.93;3.45;;;;;;;25.28;52.03;100655.44;5056514;28;20048;-71
2021/08/16 08:02:37;;;;;;;7.73;2.90;;;;;;;25.37;51.29;100668.50;5036518;28;20029;-71
2021/08/16 08:05:04;;;;;;;5.80;2.75;;;;;;;25.36;51.65;100653.53;5059395;28;20032;-72
2021/08/16 08:07:30;;;;;;;4.43;2.80;;;;;;;25.53;51.29;100678.59;5038541;28;20468;-77
2021/08/16 08:09:55;;;;;;;6.32;2.97;;;;;;;25.56;50.94;100660.28;5062477;28;20040;-78
2021/08/16 08:12:21;;;;;;;5.50;3.20;;;;;;;25.62;51.37;100669.25;5039139;28;20037;-75
2021/08/16 08:14:48;;;;;;;8.25;3.15;;;;;;;25.67;51.30;100676.56;5058913;28;20167;-73
2021/08/16 08:17:13;;;;;;;5.80;2.85;;;;;;;25.61;50.03;100627.63;5033340;28;20028;-73
2021/08/16 08:19:39;;;;;;;5.00;3.22;;;;;;;26.10;49.27;100676.50;5063114;28;20059;-76
2021/08/16 08:22:04;;;;;;;4.93;2.70;;;;;;;25.86;49.47;100672.91;5061104;28;20052;-76
2021/08/16 08:24:30;;;;;;;3.85;2.63;;;;;;;25.88;49.49;100682.31;5047177;28;20078;-76
2021/08/16 08:26:55;;;;;;;5.55;3.20;;;;;;;25.80;49.80;100692.47;5067008;28;20540;-74
2021/08/16 08:29:23;;;;;;;6.18;2.63;;;;;;;25.78;49.63;100703.34;5028583;28;20040;-75
2021/08/16 08:31:49;;;;;;;4.35;2.35;;;;;;;25.68;49.67;100699.59;5055660;28;20028;-75
2021/08/16 08:34:14;;;;;;;6.50;3.38;;;;;;;25.73;49.68;100694.41;5038409;28;20458;-75
2021/08/16 08:36:40;;;;;;;4.65;2.50;;;;;;;25.72;49.62;100700.78;5039239;28;20025;-74
2021/08/16 08:39:06;;;;;;;3.10;2.50;;;;;;;25.64;49.79;100699.16;5042664;28;20037;-73
2021/08/16 08:41:33;;;;;;;6.80;2.92;;;;;;;25.62;49.61;100690.56;5058922;28;20040;-73
2021/08/16 08:44:00;;;;;;;4.00;2.67;;;;;;;25.34;49.88;100676.94;5038514;28;20078;-75
2021/08/16 08:46:27;;;;;;;3.55;2.55;;;;;;;25.47;50.19;100716.75;5061426;28;20041;-76
2021/08/16 08:48:53;;;;;;;6.70;2.83;;;;;;;25.46;50.21;100717.81;5042554;28;20961;-70
2021/08/16 08:51:21;;;;;;;3.22;2.42;;;;;;;25.43;50.58;100711.06;5067389;28;20118;-72
2021/08/16 08:53:47;;;;;;;5.03;2.90;;;;;;;25.44;50.89;100702.03;5028739;28;20461;-74
2021/08/16 08:56:14;;;;;;;7.15;2.70;;;;;;;25.51;50.91;100723.31;5054848;28;20033;-69
2021/08/16 08:58:40;;;;;;;4.63;2.55;;;;;;;25.42;50.70;100690.78;5032298;28;21622;-77
2021/08/16 09:01:05;;;;;;;6.13;3.10;;;;;;;25.55;50.62;100716.50;5059683;28;20131;-78
2021/08/16 09:03:31;;;;;;;4.45;2.72;;;;;;;25.62;50.46;100717.25;5047055;28;20385;-77
2021/08/16 09:05:59;;;;;;;5.75;2.85;;;;;;;25.61;50.57;100708.41;5053568;28;20396;-75
2021/08/16 09:08:32;;;;;;;4.38;2.83;;;;;;;25.55;50.69;100711.97;5058374;28;20040;-78
2021/08/16 09:11:14;;;;;;;5.78;3.08;;;;;;;25.64;50.62;100709.00;5037604;28;20397;-73
2021/08/16 09:13:56;;;;;;;4.50;2.88;;;;;;;25.64;50.75;100706.34;5064562;28;20542;-79
2021/08/16 09:16:22;;;;;;;6.05;2.67;;;;;;;25.60;50.36;100722.78;5039540;28;20089;-78
2021/08/16 09:18:49;;;;;;;5.13;2.70;;;;;;;25.63;50.74;100708.19;5063495;28;20086;-72
2021/08/16 09:21:29;;;;;;;5.47;2.95;;;;;;;25.53;50.61;100710.56;5034679;28;20036;-73
2021/08/16 09:23:57;;;;;;;4.57;2.97;;;;;;;25.65;50.68;100718.63;5037453;28;20063;-69
2021/08/16 09:26:29;;;;;;;7.50;3.65;;;;;;;25.63;51.05;100729.53;5019350;28;20759;-77
2021/08/16 09:28:55;;;;;;;6.00;2.67;;;;;;;25.66;51.12;100723.75;5054802;28;20044;-76
2021/08/16 09:31:24;;;;;;;7.10;3.05;;;;;;;25.68;51.12;100753.75;5038152;28;20032;-72
2021/08/16 09:33:54;;;;;;;5.97;3.33;;;;;;;25.57;51.11;100719.75;5055620;28;20349;-72
2021/08/16 09:36:21;;;;;;;5.18;2.78;;;;;;;25.71;51.06;100745.28;5029925;28;20402;-70
2021/08/16 09:38:47;;;;;;;4.13;3.10;;;;;;;25.74;51.02;100741.38;5031122;28;20915;-72
2021/08/16 09:41:21;;;;;;;5.47;2.83;;;;;;;25.73;51.10;100734.41;5041930;28;20047;-72
2021/08/16 09:43:47;;;;;;;4.35;3.08;;;;;;;25.82;50.84;100743.72;5053171;28;20024;-74
2021/08/16 09:46:14;;;;;;;5.88;3.38;;;;;;;25.58;51.27;100729.38;5035589;28;20048;-73
2021/08/16 09:48:39;;;;;;;5.20;3.17;;;;;;;25.64;51.13;100749.00;5048553;28;20031;-73
2021/08/16 09:51:05;;;;;;;5.72;2.97;;;;;;;25.52;51.14;100751.59;5038772;28;20029;-73
2021/08/16 09:53:32;;;;;;;4.63;2.90;;;;;;;25.54;51.23;100765.53;5030685;28;20029;-73
2021/08/16 09:56:01;;;;;;;4.55;2.80;;;;;;;25.57;51.04;100770.41;5043012;28;20394;-73
2021/08/16 09:58:27;;;;;;;5.05;3.20;;;;;;;25.55;50.71;100781.31;5026073;28;20060;-73
2021/08/16 10:00:53;;;;;;;5.50;3.10;;;;;;;25.54;51.24;100790.34;5039729;28;20107;-73
2021/08/16 10:03:20;;;;;;;5.03;3.20;;;;;;;25.39;50.94;100765.03;5036772;28;21573;-72
2021/08/16 10:05:47;;;;;;;4.55;2.97;;;;;;;25.52;50.84;100789.75;5038325;28;20037;-73
2021/08/16 10:08:24;;;;;;;5.55;3.20;;;;;;;25.54;51.03;100795.69;5032395;28;20033;-74
2021/08/16 10:10:53;;;;;;;4.90;3.00;;;;;;;25.55;50.96;100807.97;5039042;28;20136;-72
2021/08/16 10:13:22;;;;;;;;;;;;;;;25.54;50.80;100806.34;5037695;28;20072;-71
2021/08/16 10:15:53;;;;;;;5.32;3.20;;;;;;;25.46;50.92;100787.94;5035866;28;19939;-72
2021/08/16 10:18:26;;;;;;;4.32;3.10;;;;;;;25.41;50.91;100787.78;4989401;28;20033;-72
2021/08/16 10:20:52;;;;;;;3.03;2.50;;;;;;;25.35;50.87;100782.50;5060523;28;20071;-73
2021/08/16 10:23:21;;;;;;;4.82;3.00;;;;;;;25.51;50.86;100804.13;5037564;28;20085;-75
2021/08/16 10:25:48;;;;;;;5.45;2.70;;;;;;;25.45;50.45;100804.16;5058826;28;20707;-75
2021/08/16 10:28:26;;;;;;;4.68;3.03;;;;;;;25.67;50.15;100816.06;5033182;28;20036;-74
2021/08/16 10:30:52;;;;;;;4.90;2.90;;;;;;;25.61;49.36;100814.28;5055055;28;20040;-73
2021/08/16 10:33:18;;;;;;;4.35;2.05;;;;;;;25.54;48.85;100806.34;4996865;28;20773;-74
2021/08/16 10:35:44;;;;;;;5.18;2.50;;;;;;;25.52;48.87;100811.06;5050838;28;20047;-72
2021/08/16 10:38:11;;;;;;;4.40;2.63;;;;;;;25.50;49.39;100820.34;5031183;28;20230;-72
2021/08/16 10:40:43;;;;;;;4.43;2.80;;;;;;;25.51;48.81;100827.28;5029587;28;20029;-71
2021/08/16 10:43:10;;;;;;;6.30;2.97;;;;;;;25.44;48.65;100822.00;5061134;28;20033;-72
2021/08/16 10:45:53;;;;;;;5.35;2.70;;;;;;;25.42;49.00;100821.41;5011809;28;20498;-72
2021/08/16 10:48:34;;;;;;;5.07;2.47;;;;;;;25.47;48.63;100834.06;5063347;28;20067;-71
2021/08/16 10:51:08;;;;;;;7.32;3.13;;;;;;;25.46;48.84;100843.91;5013468;28;20171;-72
2021/08/16 10:53:51;;;;;;;5.45;2.67;;;;;;;25.19;48.55;100794.53;5063554;28;20094;-72
2021/08/16 10:56:18;;;;;;;7.80;3.38;;;;;;;25.47;48.32;100834.88;5059583;28;20141;-71
2021/08/16 10:58:45;;;;;;;6.63;2.83;;;;;;;25.47;48.69;100850.88;5047598;28;20040;-72
2021/08/16 11:01:14;;;;;;;5.97;2.63;;;;;;;25.45;48.39;100839.63;5059338;28;20037;-72
2021/08/16 11:03:40;;;;;;;6.53;2.40;;;;;;;25.46;48.36;100851.09;5058012;28;20550;-72
2021/08/16 11:06:05;;;;;;;6.68;2.80;;;;;;;25.40;48.32;100836.78;5017976;28;20044;-72
2021/08/16 11:08:31;;;;;;;4.40;2.47;;;;;;;25.46;48.34;100851.91;5049366;28;20038;-74
2021/08/16 11:11:05;;;;;;;5.50;2.92;;;;;;;25.41;48.81;100846.44;5034272;28;20097;-72
2021/08/16 11:13:32;;;;;;;3.35;2.38;;;;;;;25.42;48.96;100863.25;5066828;28;20048;-71
2021/08/16 11:16:06;;;;;;;5.45;2.80;;;;;;;25.42;48.17;100869.38;5019511;28;20044;-71
2021/08/16 11:18:32;;;;;;;7.93;2.70;;;;;;;25.44;48.08;100869.97;5064748;28;20064;-71
2021/08/16 11:21:00;;;;;;;7.15;2.85;;;;;;;25.41;47.92;100885.59;5033622;28;20040;-72